createdAt,value
2022-12-08T00:00:29.944Z,99144.80
2022-12-08T00:06:08.695Z,99153.80
2022-12-08T00:11:14.603Z,99148.80
2022-12-08T00:16:18.325Z,99142.20
2022-12-08T00:21:22.315Z,99147.80
2022-12-08T00:26:26.090Z,99150.00
2022-12-08T00:31:29.806Z,99152.40
2022-12-08T00:36:34.202Z,99166.40
2022-12-08T00:41:56.455Z,99172.00
2022-12-08T00:47:00.484Z,99182.60
2022-12-08T00:52:04.332Z,99190.40
2022-12-08T00:57:08.344Z,99195.80
2022-12-08T01:02:12.064Z,99203.80
2022-12-08T01:07:15.785Z,99204.20
2022-12-08T01:12:19.403Z,99206.20
2022-12-08T01:17:23.024Z,99210.00
2022-12-08T01:22:26.640Z,99210.60
2022-12-08T01:27:30.445Z,99208.80
2022-12-08T01:32:34.087Z,99225.60
2022-12-08T01:37:37.752Z,99221.40
2022-12-08T01:42:41.945Z,99226.00
2022-12-08T01:47:51.807Z,99230.60
2022-12-08T01:53:04.479Z,99236.20
2022-12-08T01:58:23.446Z,99234.00
2022-12-08T02:03:59.885Z,99237.40
2022-12-08T02:09:05.898Z,99242.40
2022-12-08T02:14:13.383Z,99247.40
2022-12-08T02:19:31.051Z,99240.20
2022-12-08T02:24:46.715Z,99238.80
2022-12-08T02:30:08.194Z,99238.60
2022-12-08T02:35:22.137Z,99244.00
2022-12-08T02:40:40.225Z,99248.40
2022-12-08T02:45:57.112Z,99251.20
2022-12-08T02:51:01.078Z,99263.20
2022-12-08T02:56:56.199Z,99263.20
2022-12-08T03:02:48.503Z,99272.80
2022-12-08T03:08:13.972Z,99280.20
2022-12-08T03:13:29.898Z,99289.00
2022-12-08T03:18:44.200Z,99285.00
2022-12-08T03:23:54.480Z,99288.40
2022-12-08T03:28:59.085Z,99289.60
2022-12-08T03:34:04.969Z,99297.00
2022-12-08T03:39:08.603Z,99295.00
2022-12-08T03:44:12.419Z,99312.80
2022-12-08T03:49:16.067Z,99312.40
2022-12-08T03:54:19.957Z,99316.40
2022-12-08T03:59:23.776Z,99314.40
2022-12-08T04:04:27.605Z,99315.60
2022-12-08T04:09:31.531Z,99322.00
2022-12-08T04:14:35.386Z,99328.80
2022-12-08T04:19:41.343Z,99330.00
2022-12-08T04:24:44.953Z,99334.40
2022-12-08T04:29:48.687Z,99337.60
2022-12-08T04:34:52.396Z,99347.80
2022-12-08T04:39:56.525Z,99350.40
2022-12-08T04:45:00.349Z,99353.80
2022-12-08T04:50:06.569Z,99355.20
2022-12-08T04:55:10.488Z,99362.60
2022-12-08T05:00:14.897Z,99367.40
2022-12-08T05:05:18.527Z,99371.20
2022-12-08T05:10:22.557Z,99376.40
2022-12-08T05:15:26.545Z,99372.60
2022-12-08T05:20:30.261Z,99371.40
2022-12-08T05:25:34.021Z,99384.20
2022-12-08T05:30:37.749Z,99382.80
2022-12-08T05:35:41.592Z,99383.40
2022-12-08T05:40:45.606Z,99386.80
2022-12-08T05:45:50.280Z,99390.80
2022-12-08T05:50:54.066Z,99390.40
2022-12-08T05:55:58.204Z,99396.20
2022-12-08T06:01:02.335Z,99406.60
2022-12-08T06:06:06.775Z,99408.20
2022-12-08T06:11:11.083Z,99411.00
2022-12-08T06:16:14.811Z,99418.80
2022-12-08T06:21:20.440Z,99427.40
2022-12-08T06:26:24.324Z,99429.60
2022-12-08T06:31:28.793Z,99439.60
2022-12-08T06:36:33.540Z,99437.80
2022-12-08T06:41:57.711Z,99440.80
2022-12-08T06:47:01.946Z,99444.00
2022-12-08T06:52:05.769Z,99444.40
2022-12-08T06:57:09.389Z,99451.00
2022-12-08T07:02:13.298Z,99456.00
2022-12-08T07:07:16.946Z,99466.80
2022-12-08T07:12:20.845Z,99476.40
2022-12-08T07:17:25.407Z,99480.40
2022-12-08T07:22:29.031Z,99482.20
2022-12-08T07:27:32.852Z,99486.40
2022-12-08T07:32:39.122Z,99494.00
2022-12-08T07:37:43.572Z,99501.80
2022-12-08T07:42:47.200Z,99510.20
2022-12-08T07:47:51.131Z,99521.40
2022-12-08T07:52:55.050Z,99522.00
2022-12-08T07:57:58.981Z,99526.40
2022-12-08T08:03:03.663Z,99526.40
2022-12-08T08:08:07.551Z,99533.40
2022-12-08T08:13:11.611Z,99532.20
2022-12-08T08:18:15.696Z,99527.00
2022-12-08T08:23:19.639Z,99533.60
2022-12-08T08:28:23.367Z,99535.40
2022-12-08T08:33:28.103Z,99542.40
2022-12-08T08:38:32.340Z,99546.60
2022-12-08T08:43:38.694Z,99554.00
2022-12-08T08:48:42.993Z,99568.20
2022-12-08T08:53:46.709Z,99568.80
2022-12-08T08:58:53.000Z,99569.80
2022-12-08T09:03:58.225Z,99567.40
2022-12-08T09:09:02.272Z,99571.20
2022-12-08T09:14:07.146Z,99573.40
2022-12-08T09:19:11.086Z,99576.60
2022-12-08T09:24:17.951Z,99548.60
2022-12-08T09:29:22.063Z,99447.00
2022-12-08T09:34:26.089Z,99549.60
2022-12-08T09:39:30.114Z,99538.40
2022-12-08T09:44:50.593Z,99491.80
2022-12-08T09:50:36.645Z,99552.40
2022-12-08T09:55:57.922Z,99582.60
2022-12-08T10:01:01.720Z,99591.00
2022-12-08T10:06:41.626Z,99581.80
2022-12-08T10:12:09.573Z,99576.00
2022-12-08T10:18:01.598Z,99572.20
2022-12-08T10:23:14.073Z,99571.80
2022-12-08T10:28:17.773Z,99548.80
2022-12-08T10:33:24.034Z,99542.20
2022-12-08T10:38:36.084Z,99560.60
2022-12-08T10:43:50.559Z,99555.80
2022-12-08T10:49:13.648Z,99563.00
2022-12-08T10:54:39.787Z,99569.60
2022-12-08T10:59:43.605Z,99564.20
2022-12-08T11:04:48.251Z,99558.60
2022-12-08T11:09:58.533Z,99557.40
2022-12-08T11:15:05.678Z,99553.40
2022-12-08T11:20:09.642Z,99543.40
2022-12-08T11:25:29.237Z,99534.80
2022-12-08T11:30:38.027Z,99527.80
2022-12-08T11:35:46.177Z,99532.00
2022-12-08T11:41:15.861Z,99518.40
2022-12-08T11:46:40.856Z,99519.20
2022-12-08T11:52:29.645Z,99518.40
2022-12-08T11:57:33.808Z,99510.00
2022-12-08T12:02:47.314Z,99504.00
2022-12-08T12:08:25.300Z,99498.60
2022-12-08T12:14:26.761Z,99495.80
2022-12-08T12:19:39.506Z,99492.80
2022-12-08T12:24:49.182Z,99484.80
2022-12-08T12:30:05.031Z,99480.00
2022-12-08T12:35:27.032Z,99474.20
2022-12-08T12:40:42.575Z,99466.40
2022-12-08T12:45:46.958Z,99461.20
2022-12-08T12:50:52.901Z,99454.80
2022-12-08T12:56:01.092Z,99453.00
2022-12-08T13:01:11.009Z,99449.80
2022-12-08T13:06:24.285Z,99445.40
2022-12-08T13:11:28.162Z,99452.00
2022-12-08T13:16:35.895Z,99453.20
2022-12-08T13:21:41.016Z,99446.40
2022-12-08T13:27:04.110Z,99440.00
2022-12-08T13:32:07.942Z,99443.60
2022-12-08T13:37:11.573Z,99437.60
2022-12-08T13:42:27.990Z,99433.40
2022-12-08T13:47:59.636Z,99434.60
2022-12-08T13:53:49.529Z,99432.40
2022-12-08T13:58:39.243Z,99431.80
2022-12-08T14:09:29.412Z,99436.80
2022-12-08T14:15:01.656Z,99426.60
2022-12-08T14:20:30.573Z,99434.60
2022-12-08T14:25:36.370Z,99430.80
2022-12-08T14:30:40.892Z,99428.00
2022-12-08T14:35:53.694Z,99426.20
2022-12-08T14:41:08.266Z,99423.80
2022-12-08T14:46:34.075Z,99423.40
2022-12-08T14:51:41.302Z,99419.60
2022-12-08T14:56:55.624Z,99420.20
2022-12-08T15:02:24.830Z,99427.40
2022-12-08T15:07:36.098Z,99426.20
2022-12-08T15:12:39.736Z,99424.80
2022-12-08T15:18:16.271Z,99424.40
2022-12-08T15:23:25.011Z,99427.80
2022-12-08T15:28:30.688Z,99436.60
2022-12-08T15:33:36.872Z,99430.00
2022-12-08T15:38:43.798Z,99432.00
2022-12-08T15:43:48.138Z,99434.00
2022-12-08T15:48:57.809Z,99432.20
2022-12-08T15:54:04.277Z,99428.20
2022-12-08T15:59:18.802Z,99429.20
2022-12-08T16:09:47.428Z,99440.40
2022-12-08T16:20:18.342Z,99435.20
2022-12-08T16:25:23.394Z,99433.80
2022-12-08T16:30:27.261Z,99438.00
2022-12-08T16:35:31.689Z,99429.60
2022-12-08T16:40:55.223Z,99433.00
2022-12-08T16:45:59.650Z,99435.80
2022-12-08T16:51:04.966Z,99436.40
2022-12-08T16:56:08.690Z,99430.60
2022-12-08T17:01:16.198Z,99420.60
2022-12-08T17:06:21.456Z,99425.00
2022-12-08T17:11:28.714Z,99425.60
2022-12-08T17:16:32.392Z,99431.40
2022-12-08T17:21:36.592Z,99425.80
2022-12-08T17:26:40.748Z,99420.40
2022-12-08T17:31:44.724Z,99433.00
2022-12-08T17:36:48.406Z,99431.60
2022-12-08T17:41:52.223Z,99444.60
2022-12-08T17:46:56.150Z,99430.20
2022-12-08T17:52:04.095Z,99434.40
2022-12-08T17:57:07.800Z,99433.80
2022-12-08T18:02:12.541Z,99423.40
2022-12-08T18:07:16.263Z,99414.20
2022-12-08T18:12:23.637Z,99416.60
2022-12-08T18:17:27.917Z,99406.60
2022-12-08T18:22:31.735Z,99409.20
2022-12-08T18:27:42.749Z,99406.40
2022-12-08T18:32:47.192Z,99401.00
2022-12-08T18:37:51.959Z,99388.40
2022-12-08T18:42:56.454Z,99381.20
2022-12-08T18:48:01.008Z,99380.40
2022-12-08T18:53:04.620Z,99382.60
2022-12-08T18:58:11.546Z,99391.80
2022-12-08T19:03:15.878Z,99392.80
2022-12-08T19:08:22.549Z,99386.00
2022-12-08T19:13:28.428Z,99382.80
2022-12-08T19:18:32.211Z,99379.40
2022-12-08T19:23:36.581Z,99375.80
2022-12-08T19:28:41.951Z,99373.80
2022-12-08T19:33:45.549Z,99378.80
2022-12-08T19:39:08.444Z,99377.80
2022-12-08T19:44:49.017Z,99371.80
2022-12-08T19:50:18.058Z,99374.80
2022-12-08T19:55:23.977Z,99372.00
2022-12-08T20:00:32.799Z,99367.00
2022-12-08T20:05:40.478Z,99372.60
2022-12-08T20:10:46.050Z,99375.20
2022-12-08T20:15:51.680Z,99377.80
2022-12-08T20:20:57.300Z,99380.40
2022-12-08T20:26:07.727Z,99363.80
2022-12-08T20:31:27.024Z,99366.20
2022-12-08T20:36:32.424Z,99370.00
2022-12-08T20:41:39.286Z,99372.80
2022-12-08T20:46:49.287Z,99381.00
2022-12-08T20:51:53.716Z,99389.20
2022-12-08T20:56:58.228Z,99394.40
2022-12-08T21:02:03.087Z,99389.40
2022-12-08T21:07:09.316Z,99391.60
2022-12-08T21:12:13.899Z,99396.80
2022-12-08T21:17:19.031Z,99403.80
2022-12-08T21:22:22.994Z,99412.80
2022-12-08T21:27:27.251Z,99415.40
2022-12-08T21:32:31.142Z,99422.80
2022-12-08T21:37:36.138Z,99427.60
2022-12-08T21:42:46.540Z,99433.60
2022-12-08T21:47:51.210Z,99434.00
2022-12-08T21:52:55.606Z,99434.40
2022-12-08T21:58:01.273Z,99438.00
2022-12-08T22:03:07.152Z,99435.00
2022-12-08T22:08:10.928Z,99437.40
2022-12-08T22:13:15.150Z,99440.00
2022-12-08T22:18:19.485Z,99443.60
2022-12-08T22:23:23.546Z,99440.80
2022-12-08T22:28:32.297Z,99440.00
2022-12-08T22:33:36.112Z,99448.00
2022-12-08T22:38:41.074Z,99443.00
2022-12-08T22:43:46.853Z,99448.60
2022-12-08T22:48:53.181Z,99449.60
2022-12-08T22:53:57.041Z,99453.80
2022-12-08T22:59:00.988Z,99456.60
2022-12-08T23:04:05.783Z,99457.60
2022-12-08T23:09:09.500Z,99461.00
2022-12-08T23:14:13.567Z,99459.40
2022-12-08T23:19:17.521Z,99464.40
2022-12-08T23:24:21.722Z,99462.20
2022-12-08T23:29:26.015Z,99460.80
2022-12-08T23:34:29.699Z,99455.20
2022-12-08T23:39:33.396Z,99465.60
2022-12-08T23:44:37.654Z,99467.20
2022-12-08T23:49:42.505Z,99470.00
2022-12-08T23:54:46.999Z,99475.20
2022-12-08T23:59:50.921Z,99472.40
